Boston, Massachusetts
Traffic Map
Current Weather Conditions
Boston, Massachusetts
Overcast Haze
Overcast
64°
Feels Like: 64°
Wind Chill: 64° Ceiling: 400
Heat Index: 64° Visibility: 3mi
Dew Point: 63° Wind: 16mph
Humidity: 96% Direction: 20° (NNE)
Pressure: 29.95in Gusts: 0mph
Raw Report DataKBOS 200454Z 02014KT 3SM BR OVC004 18/17 A2995 RMK AO2 SFC VIS 5 SLP141 T01780172 401890172
Traffic Incident Summary
Active as of:
Severity:
Category:
InformationThere was an issue retrieving the traffic information for this location. Please try a different location or try again shortly.
Advertisements